Time;durP1;ratioP1;P1;durP2;ratioP2;P2;SDS_P1;SDS_P2;PMS_P1;PMS_P2;Temp;Humidity;BMP_temperature;BMP_pressure;BME280_temperature;BME280_humidity;BME280_pressure;Samples;Min_cycle;Max_cycle;Signal;HPM_P1;HPM_P2
2023/08/11 00:00:21;;;;;;;3.30;2.97;;;;;;;13.03;100.00;96424.19;1035000;28;20030;-74
2023/08/11 00:00:51;;;;;;;4.20;3.30;;;;;;;13.01;100.00;96417.56;1035190;28;20480;-74
2023/08/11 00:01:22;;;;;;;3.75;3.10;;;;;;;12.95;100.00;96417.59;1033761;28;20029;-74
2023/08/11 00:01:52;;;;;;;4.63;3.13;;;;;;;12.98;100.00;96426.81;1031116;28;20045;-75
2023/08/11 00:02:22;;;;;;;4.25;3.25;;;;;;;12.98;100.00;96414.44;1027060;28;20019;-75
2023/08/11 00:02:53;;;;;;;4.00;3.42;;;;;;;12.96;100.00;96429.69;1027106;28;20054;-74
2023/08/11 00:03:23;;;;;;;5.07;3.28;;;;;;;12.96;100.00;96421.78;1024121;28;20020;-74
2023/08/11 00:03:54;;;;;;;3.63;3.15;;;;;;;12.94;100.00;96426.53;1019587;28;20027;-73
2023/08/11 00:04:24;;;;;;;4.43;3.20;;;;;;;12.83;100.00;96414.38;1028743;28;20026;-74
2023/08/11 00:04:55;;;;;;;6.07;3.40;;;;;;;12.92;100.00;96423.38;1027422;28;20034;-73
2023/08/11 00:05:25;;;;;;;4.15;3.58;;;;;;;12.88;100.00;96417.03;1031463;28;20030;-73
2023/08/11 00:05:56;;;;;;;5.95;3.65;;;;;;;12.88;100.00;96422.31;1031383;28;20022;-73
2023/08/11 00:06:26;;;;;;;3.75;3.22;;;;;;;12.89;100.00;96426.53;1034791;28;20022;-75
2023/08/11 00:06:57;;;;;;;4.00;2.88;;;;;;;12.90;100.00;96433.34;1035414;28;20029;-74
2023/08/11 00:07:27;;;;;;;5.20;3.28;;;;;;;12.87;100.00;96428.59;1031255;28;20090;-75
2023/08/11 00:07:58;;;;;;;5.57;3.78;;;;;;;12.88;100.00;96422.31;1035056;28;20022;-74
2023/08/11 00:08:28;;;;;;;5.93;3.30;;;;;;;12.88;100.00;96429.44;1027029;28;20031;-74
2023/08/11 00:08:59;;;;;;;4.95;3.30;;;;;;;12.85;100.00;96428.09;1026978;28;20023;-72
2023/08/11 00:09:29;;;;;;;6.65;3.85;;;;;;;12.71;100.00;96405.94;1030899;28;20010;-74
2023/08/11 00:10:00;;;;;;;5.00;3.47;;;;;;;12.82;100.00;96420.72;1031241;28;20022;-76
2023/08/11 00:10:30;;;;;;;4.68;3.60;;;;;;;12.85;100.00;96427.31;1026744;28;20104;-75
2023/08/11 00:11:01;;;;;;;3.85;3.30;;;;;;;12.83;100.00;96430.19;1023064;28;20429;-74
2023/08/11 00:11:31;;;;;;;4.07;3.20;;;;;;;12.82;100.00;96423.34;1026937;28;20015;-74
2023/08/11 00:12:02;;;;;;;4.75;3.42;;;;;;;12.81;100.00;96424.41;1031161;28;20022;-74
2023/08/11 00:12:32;;;;;;;5.18;3.35;;;;;;;12.82;100.00;96433.09;1027138;28;20033;-73
2023/08/11 00:13:03;;;;;;;5.70;3.40;;;;;;;12.81;100.00;96428.84;1027010;28;20029;-74
2023/08/11 00:13:34;;;;;;;5.40;3.10;;;;;;;12.77;100.00;96425.16;1027127;28;20117;-74
2023/08/11 00:14:04;;;;;;;7.53;3.10;;;;;;;12.77;100.00;96425.94;1027358;28;20114;-74
2023/08/11 00:14:35;;;;;;;4.55;3.22;;;;;;;12.80;100.00;96429.91;1035189;28;20026;-74
2023/08/11 00:15:06;;;;;;;4.22;3.60;;;;;;;12.79;100.00;96426.50;1031147;28;20088;-74
2023/08/11 00:15:39;;;;;;;4.25;3.50;;;;;;;12.78;100.00;96432.81;1031178;28;20428;-73
2023/08/11 00:16:10;;;;;;;4.43;3.58;;;;;;;12.78;100.00;96432.81;1027178;28;20023;-73
2023/08/11 00:16:40;;;;;;;4.43;3.50;;;;;;;12.77;100.00;96425.94;1031228;28;20027;-75
2023/08/11 00:17:11;;;;;;;6.45;3.60;;;;;;;12.76;100.00;96429.63;1031645;28;20022;-74
2023/08/11 00:17:41;;;;;;;3.92;3.10;;;;;;;12.74;100.00;96426.47;1031515;28;20026;-76
2023/08/11 00:18:11;;;;;;;4.28;3.55;;;;;;;12.73;100.00;96427.53;1030997;28;20056;-74
2023/08/11 00:18:42;;;;;;;5.63;3.70;;;;;;;12.76;100.00;96434.91;1027150;28;20019;-75
2023/08/11 00:19:12;;;;;;;4.03;3.45;;;;;;;12.78;100.00;96429.41;1027370;28;20485;-75
2023/08/11 00:19:43;;;;;;;6.93;3.65;;;;;;;12.73;100.00;96427.53;1031022;28;20069;-72
2023/08/11 00:20:13;;;;;;;7.47;3.70;;;;;;;12.66;100.00;96416.44;1035243;28;20022;-73
2023/08/11 00:20:45;;;;;;;4.15;3.25;;;;;;;12.71;100.00;96435.69;1030528;28;20030;-73
2023/08/11 00:21:16;;;;;;;3.60;2.97;;;;;;;12.64;100.00;96415.91;1026978;28;20054;-74
2023/08/11 00:21:46;;;;;;;5.82;3.67;;;;;;;12.69;100.00;96429.88;1035209;28;20426;-73
2023/08/11 00:22:17;;;;;;;5.07;3.22;;;;;;;12.63;100.00;96419.59;1035050;28;20030;-75
2023/08/11 00:22:48;;;;;;;4.85;3.33;;;;;;;12.63;100.00;96420.38;1035423;28;20029;-74
2023/08/11 00:23:18;;;;;;;5.05;3.72;;;;;;;12.63;100.00;96430.13;1035429;28;20021;-74
2023/08/11 00:23:49;;;;;;;5.32;3.50;;;;;;;12.63;100.00;96427.50;1035388;28;20030;-73
2023/08/11 00:24:20;;;;;;;4.20;3.67;;;;;;;12.61;100.00;96424.31;1027186;28;20023;-74
2023/08/11 00:24:50;;;;;;;7.60;3.30;;;;;;;12.61;100.00;96432.22;1027285;28;20095;-75
2023/08/11 00:25:21;;;;;;;3.72;3.10;;;;;;;12.57;100.00;96418.00;1023457;28;20544;-73
2023/08/11 00:25:52;;;;;;;4.78;2.83;;;;;;;12.61;100.00;96426.94;1027624;28;20535;-74
2023/08/11 00:26:25;;;;;;;5.28;3.63;;;;;;;12.53;100.00;96409.81;1022901;29;20030;-75
2023/08/11 00:26:56;;;;;;;4.35;3.35;;;;;;;12.61;100.00;96426.94;1027375;28;20023;-74
2023/08/11 00:27:27;;;;;;;5.45;3.60;;;;;;;12.62;100.00;96425.91;1023352;28;20390;-74
2023/08/11 00:27:58;;;;;;;4.97;3.45;;;;;;;12.53;100.00;96412.44;1027282;28;20022;-74
2023/08/11 00:28:29;;;;;;;5.40;3.33;;;;;;;12.61;100.00;96426.94;1019296;29;20027;-75
2023/08/11 00:29:00;;;;;;;3.38;2.92;;;;;;;12.55;100.00;96418.25;1019737;29;20028;-74
2023/08/11 00:29:31;;;;;;;4.97;3.50;;;;;;;12.56;100.00;96429.56;1023674;28;20050;-74
2023/08/11 00:30:02;;;;;;;4.18;3.47;;;;;;;12.52;100.00;96420.63;1029646;28;20019;-73
2023/08/11 00:30:32;;;;;;;5.80;3.50;;;;;;;12.56;100.00;96429.56;1026524;28;20023;-73
2023/08/11 00:31:03;;;;;;;4.28;3.65;;;;;;;12.54;100.00;96434.28;1027448;28;20436;-73
2023/08/11 00:31:35;;;;;;;6.57;4.40;;;;;;;12.52;100.00;96434.56;1031223;28;20761;-75
2023/08/11 00:32:05;;;;;;;4.88;3.33;;;;;;;12.48;100.00;96431.66;1031821;28;20018;-73
2023/08/11 00:32:36;;;;;;;4.47;3.33;;;;;;;12.47;100.00;96431.91;1035349;28;20041;-73
2023/08/11 00:33:06;;;;;;;4.38;3.22;;;;;;;12.44;100.00;96429.78;1035466;28;20072;-73
2023/08/11 00:33:37;;;;;;;6.88;3.65;;;;;;;12.44;100.00;96433.22;1031413;28;20499;-75
2023/08/11 00:34:07;;;;;;;4.40;3.92;;;;;;;12.43;100.00;96431.63;1031467;28;20026;-75
2023/08/11 00:34:38;;;;;;;5.53;3.28;;;;;;;12.41;100.00;96433.72;1035223;28;20436;-74
2023/08/11 00:35:08;;;;;;;6.93;3.80;;;;;;;12.41;100.00;96432.94;1027103;28;20038;-74
2023/08/11 00:35:40;;;;;;;11.30;3.95;;;;;;;12.39;100.00;96432.41;1027273;28;20452;-74
2023/08/11 00:36:10;;;;;;;12.00;3.97;;;;;;;12.41;100.00;96431.09;1023431;29;20030;-76
2023/08/11 00:36:41;;;;;;;5.15;3.38;;;;;;;12.38;100.00;96436.88;1024591;28;20094;-73
2023/08/11 00:37:11;;;;;;;4.38;3.47;;;;;;;12.38;100.00;96433.47;1031163;28;20038;-73
2023/08/11 00:37:42;;;;;;;4.93;3.30;;;;;;;12.27;100.00;96415.00;1027375;28;20022;-74
2023/08/11 00:38:12;;;;;;;4.65;3.88;;;;;;;12.38;100.00;96439.50;1027292;28;20027;-74
2023/08/11 00:38:43;;;;;;;6.10;4.03;;;;;;;12.30;100.00;96426.81;1027146;28;20026;-73
2023/08/11 00:39:14;;;;;;;4.68;3.50;;;;;;;12.35;100.00;96442.66;1031301;28;20572;-74
2023/08/11 00:39:46;;;;;;;7.78;3.72;;;;;;;12.24;100.00;96418.13;1027631;28;20051;-73
2023/08/11 00:40:16;;;;;;;5.95;3.78;;;;;;;12.30;100.00;96437.34;1024496;28;20038;-74
2023/08/11 00:40:47;;;;;;;5.38;3.63;;;;;;;12.32;100.00;96443.16;1022555;29;20024;-74
2023/08/11 00:41:17;;;;;;;4.63;3.67;;;;;;;12.23;100.00;96418.38;1023347;28;20089;-74
2023/08/11 00:41:48;;;;;;;8.00;3.78;;;;;;;12.28;100.00;96439.47;1024520;28;20039;-75
2023/08/11 00:42:18;;;;;;;3.65;3.25;;;;;;;12.26;100.00;96436.28;1031167;28;20022;-74
2023/08/11 00:42:52;;;;;;;5.38;4.10;;;;;;;12.30;100.00;96444.44;1031212;28;20105;-74
2023/08/11 00:43:22;;;;;;;5.05;3.50;;;;;;;12.25;100.00;96429.44;1031596;28;20049;-74
2023/08/11 00:43:53;;;;;;;5.15;3.58;;;;;;;12.27;100.00;96440.50;1035728;28;20454;-74
2023/08/11 00:44:23;;;;;;;5.53;3.45;;;;;;;12.29;100.00;96433.13;1039372;28;20076;-74
2023/08/11 00:44:53;;;;;;;4.95;3.60;;;;;;;12.28;100.00;96439.47;1039242;28;20026;-75
2023/08/11 00:45:24;;;;;;;8.40;4.13;;;;;;;12.22;100.00;96424.69;1039239;28;20033;-74
2023/08/11 00:45:54;;;;;;;4.95;3.83;;;;;;;12.19;100.00;96425.19;1035311;28;20033;-74
2023/08/11 00:46:25;;;;;;;4.38;3.58;;;;;;;12.27;100.00;96437.84;1031327;28;20073;-75
2023/08/11 00:46:56;;;;;;;4.75;3.42;;;;;;;12.25;100.00;96435.50;1027092;28;20503;-74
2023/08/11 00:47:26;;;;;;;4.45;3.53;;;;;;;12.25;100.00;96435.50;1031321;28;20026;-73
2023/08/11 00:47:57;;;;;;;11.23;3.60;;;;;;;12.24;100.00;96433.13;1031253;28;20034;-75
2023/08/11 00:48:27;;;;;;;5.43;3.33;;;;;;;12.29;100.00;96435.78;1027222;28;20030;-75
2023/08/11 00:48:58;;;;;;;3.95;3.55;;;;;;;12.30;100.00;96433.94;1026924;28;20520;-75
2023/08/11 00:49:28;;;;;;;6.85;3.83;;;;;;;12.29;100.00;96438.41;1031207;28;20042;-73
2023/08/11 00:49:59;;;;;;;5.60;3.58;;;;;;;12.32;100.00;96439.75;1023151;28;20031;-74
2023/08/11 00:50:30;;;;;;;6.10;3.70;;;;;;;12.29;100.00;96433.13;1022589;29;20575;-74
2023/08/11 00:51:00;;;;;;;5.13;3.58;;;;;;;12.31;100.00;96438.94;1030959;28;20076;-76
2023/08/11 00:51:31;;;;;;;7.05;3.42;;;;;;;12.27;100.00;96432.59;1031251;28;20477;-76
2023/08/11 00:52:03;;;;;;;5.00;3.90;;;;;;;12.32;100.00;96435.25;1026915;28;20397;-75
2023/08/11 00:52:33;;;;;;;3.60;3.30;;;;;;;12.32;100.00;96445.78;1027182;28;20038;-75
2023/08/11 00:53:05;;;;;;;7.47;3.83;;;;;;;12.28;100.00;96434.19;1027088;28;20041;-74
2023/08/11 00:53:36;;;;;;;5.30;3.47;;;;;;;12.28;100.00;96439.47;1031083;28;20453;-74
2023/08/11 00:54:07;;;;;;;4.85;3.67;;;;;;;12.35;100.00;96445.28;1023248;29;20027;-74
2023/08/11 00:54:39;;;;;;;5.78;3.53;;;;;;;12.28;100.00;96431.56;1023226;29;20031;-74
2023/08/11 00:55:09;;;;;;;6.50;3.80;;;;;;;12.35;100.00;96440.03;1023734;28;20023;-74
2023/08/11 00:55:40;;;;;;;5.00;3.47;;;;;;;12.35;100.00;96442.66;1030878;28;20520;-75
2023/08/11 00:56:10;;;;;;;5.03;3.90;;;;;;;12.37;100.00;96448.44;1031007;28;20148;-74
2023/08/11 00:56:44;;;;;;;4.80;3.72;;;;;;;12.32;100.00;96440.53;1027001;28;20121;-74
2023/08/11 00:57:15;;;;;;;4.45;3.97;;;;;;;12.30;100.00;96445.25;1026736;28;20039;-74
2023/08/11 00:57:46;;;;;;;11.48;3.67;;;;;;;12.30;100.00;96442.63;1023049;29;20781;-75
2023/08/11 00:58:16;;;;;;;4.82;3.80;;;;;;;12.30;100.00;96450.50;1023145;29;20030;-75
2023/08/11 00:58:47;;;;;;;7.07;3.75;;;;;;;12.20;100.00;96432.81;1024080;28;20023;-74
2023/08/11 00:59:19;;;;;;;8.07;4.05;;;;;;;12.26;100.00;96444.19;1027102;28;20042;-75
2023/08/11 00:59:49;;;;;;;6.75;3.42;;;;;;;12.26;100.00;96462.59;1023144;29;20487;-75
2023/08/11 01:00:21;;;;;;;5.30;3.47;;;;;;;12.24;100.00;96454.97;1022906;28;20042;-76
2023/08/11 01:00:51;;;;;;;4.88;3.95;;;;;;;12.16;100.00;96444.13;1027110;28;20401;-74
2023/08/11 01:01:22;;;;;;;6.00;3.72;;;;;;;12.16;100.00;96446.75;1023783;28;20031;-74
2023/08/11 01:01:52;;;;;;;5.28;3.50;;;;;;;12.20;100.00;96458.34;1023131;29;20442;-74
2023/08/11 01:02:23;;;;;;;4.03;3.22;;;;;;;12.16;100.00;96452.00;1022870;28;20038;-74
2023/08/11 01:02:53;;;;;;;4.22;3.47;;;;;;;12.13;100.00;96452.53;1023219;29;20073;-73
2023/08/11 01:03:24;;;;;;;4.30;3.42;;;;;;;12.02;100.00;96436.69;1023094;28;20171;-75
2023/08/11 01:03:54;;;;;;;7.18;4.22;;;;;;;12.11;100.00;96459.91;1020364;29;20054;-73
2023/08/11 01:04:25;;;;;;;6.47;3.60;;;;;;;12.06;100.00;96446.69;1027166;28;20037;-75
2023/08/11 01:04:55;;;;;;;6.78;3.92;;;;;;;12.11;100.00;96457.25;1031108;28;20026;-73
2023/08/11 01:05:26;;;;;;;6.97;3.88;;;;;;;12.09;100.00;96456.72;1027163;28;20027;-74
2023/08/11 01:06:12;;;;;;;6.25;3.70;;;;;;;12.07;100.00;96453.53;1026989;28;20034;-75
2023/08/11 01:06:48;;;;;;;4.55;3.75;;;;;;;12.05;100.00;96447.75;1033406;28;20050;-75
2023/08/11 01:07:25;;;;;;;5.82;3.60;;;;;;;11.99;100.00;96445.06;1026970;28;20469;-74
2023/08/11 01:08:08;;;;;;;4.00;3.47;;;;;;;12.03;100.00;96450.63;1031278;28;20117;-74
2023/08/11 01:08:49;;;;;;;7.22;3.78;;;;;;;12.03;100.00;96455.88;1031112;28;20328;-74
2023/08/11 01:09:25;;;;;;;;;;;;;;;12.03;100.00;96450.63;1031294;28;20022;-73
2023/08/11 01:10:15;;;;;;;5.85;3.75;;;;;;;12.03;100.00;96454.03;1026811;28;19940;-75
2023/08/11 01:10:55;;;;;;;4.47;3.75;;;;;;;11.96;100.00;96436.91;1022440;29;20682;-75
2023/08/11 01:11:44;;;;;;;5.25;3.95;;;;;;;12.01;100.00;96450.09;1022221;29;20802;-74
2023/08/11 01:12:20;;;;;;;8.00;4.10;;;;;;;12.01;100.00;96453.50;1020518;29;20031;-75
2023/08/11 01:13:03;;;;;;;8.75;3.88;;;;;;;11.98;100.00;96453.22;1023960;28;20259;-74
2023/08/11 01:13:35;;;;;;;6.47;3.92;;;;;;;11.95;100.00;96449.25;1031265;28;20516;-73
2023/08/11 01:14:16;;;;;;;7.00;3.90;;;;;;;11.88;100.00;96440.81;1027030;28;20114;-75
2023/08/11 01:14:53;;;;;;;7.18;3.50;;;;;;;11.94;100.00;96450.31;1033709;28;20076;-74
2023/08/11 01:15:26;;;;;;;6.22;3.80;;;;;;;11.91;100.00;96445.56;1023117;29;20267;-73
2023/08/11 01:16:00;;;;;;;6.20;3.75;;;;;;;11.88;100.00;96440.81;1023153;29;20279;-75
2023/08/11 01:16:31;;;;;;;4.18;3.60;;;;;;;11.84;100.00;96439.72;1023063;28;21227;-74
2023/08/11 01:17:02;;;;;;;5.72;4.05;;;;;;;11.87;100.00;96447.13;1019163;29;20074;-73
2023/08/11 01:17:32;;;;;;;5.13;3.95;;;;;;;11.86;100.00;96448.16;1027245;28;20461;-75
2023/08/11 01:18:04;;;;;;;8.50;4.20;;;;;;;11.85;100.00;96449.19;1024666;28;20035;-74
2023/08/11 01:18:35;;;;;;;6.05;3.90;;;;;;;11.82;100.00;96441.78;1023200;29;20426;-74
2023/08/11 01:19:05;;;;;;;4.30;3.90;;;;;;;11.76;100.00;96437.53;1023070;29;20565;-74
2023/08/11 01:19:36;;;;;;;4.70;3.70;;;;;;;11.80;100.00;96449.13;1023527;28;20544;-74
2023/08/11 01:20:10;;;;;;;3.90;3.50;;;;;;;11.78;100.00;96444.13;1027194;28;20023;-76
2023/08/11 01:20:41;;;;;;;4.78;3.53;;;;;;;11.75;100.00;96435.94;1018354;29;20027;-75
2023/08/11 01:21:12;;;;;;;6.78;4.00;;;;;;;11.76;100.00;96442.78;1023126;29;20307;-76
2023/08/11 01:21:43;;;;;;;4.30;3.60;;;;;;;11.75;100.00;96446.47;1022987;29;20122;-76
2023/08/11 01:22:15;;;;;;;4.88;3.90;;;;;;;11.74;100.00;96440.41;1022855;29;20314;-73
2023/08/11 01:22:51;;;;;;;6.10;3.65;;;;;;;11.72;100.00;96437.25;1019529;29;20015;-75
2023/08/11 01:23:22;;;;;;;4.53;3.90;;;;;;;11.76;100.00;96442.78;1026917;28;20509;-74
2023/08/11 01:23:52;;;;;;;5.05;3.78;;;;;;;11.70;100.00;96433.28;1024059;28;20030;-75
2023/08/11 01:24:23;;;;;;;6.00;3.95;;;;;;;11.74;100.00;96445.69;1018926;29;20428;-74
2023/08/11 01:24:53;;;;;;;4.65;3.90;;;;;;;11.75;100.00;96436.75;1020921;28;20763;-74
2023/08/11 01:25:24;;;;;;;4.70;3.97;;;;;;;11.77;100.00;96439.91;1023092;29;20088;-75
2023/08/11 01:25:54;;;;;;;4.68;3.83;;;;;;;11.75;100.00;96439.38;1027084;28;20018;-73
2023/08/11 01:26:24;;;;;;;7.75;3.97;;;;;;;11.75;100.00;96439.38;1015443;29;20526;-74
2023/08/11 01:26:55;;;;;;;5.50;3.67;;;;;;;11.80;100.00;96443.84;1019127;29;20023;-74
2023/08/11 01:27:26;;;;;;;5.20;4.00;;;;;;;11.81;100.00;96440.19;1018988;29;20012;-74
2023/08/11 01:27:57;;;;;;;5.45;4.10;;;;;;;11.80;100.00;96438.59;1023115;29;20027;-75
2023/08/11 01:28:27;;;;;;;8.13;4.20;;;;;;;11.82;100.00;96447.03;1022900;29;20028;-74
2023/08/11 01:28:58;;;;;;;8.20;4.40;;;;;;;11.84;100.00;96446.78;1027010;28;20471;-75
2023/08/11 01:29:29;;;;;;;7.53;4.75;;;;;;;11.81;100.00;96440.19;1023036;29;20023;-75
2023/08/11 01:29:59;;;;;;;6.05;4.07;;;;;;;11.82;100.00;96447.03;1022974;29;20026;-74
2023/08/11 01:30:30;;;;;;;5.38;4.00;;;;;;;11.80;100.00;96443.84;1026351;28;20026;-75
2023/08/11 01:31:00;;;;;;;6.55;4.55;;;;;;;11.79;100.00;96447.53;1030896;28;20014;-73
2023/08/11 01:31:31;;;;;;;9.38;4.10;;;;;;;11.75;100.00;96439.38;1030875;28;20030;-74
2023/08/11 01:32:02;;;;;;;5.53;4.00;;;;;;;11.72;100.00;96439.88;1022892;29;20054;-74
2023/08/11 01:32:32;;;;;;;5.60;4.25;;;;;;;11.78;100.00;96443.34;1018960;29;20648;-76
2023/08/11 01:33:04;;;;;;;4.25;3.85;;;;;;;11.76;100.00;96456.72;1022861;28;20023;-76
2023/08/11 01:33:34;;;;;;;7.78;4.13;;;;;;;11.75;100.00;96451.72;1026573;28;20077;-73
2023/08/11 01:34:05;;;;;;;5.68;4.10;;;;;;;11.74;100.00;96443.03;1031291;28;20368;-74
2023/08/11 01:34:35;;;;;;;5.22;3.92;;;;;;;11.74;100.00;96453.56;1031040;28;20082;-75
2023/08/11 01:35:06;;;;;;;6.30;4.20;;;;;;;11.74;100.00;96445.69;1026643;28;20511;-74
2023/08/11 01:35:37;;;;;;;4.57;3.80;;;;;;;11.75;100.00;96449.88;1026965;28;20030;-75
2023/08/11 01:36:08;;;;;;;8.95;4.13;;;;;;;11.74;100.00;96444.88;1027232;28;20066;-74
2023/08/11 01:36:40;;;;;;;6.25;4.13;;;;;;;11.76;100.00;96458.56;1026769;28;20027;-75
2023/08/11 01:37:12;;;;;;;4.57;3.60;;;;;;;11.75;100.00;96460.41;1023409;28;20027;-74
2023/08/11 01:37:43;;;;;;;5.75;3.97;;;;;;;11.74;100.00;96463.28;1023025;29;20118;-74
2023/08/11 01:38:13;;;;;;;5.40;3.70;;;;;;;11.73;100.00;96459.84;1023599;28;20259;-74
2023/08/11 01:38:44;;;;;;;5.85;4.10;;;;;;;11.71;100.00;96461.16;1031158;28;20023;-74
2023/08/11 01:39:14;;;;;;;4.47;4.00;;;;;;;11.70;100.00;96459.56;1035154;28;20431;-75
2023/08/11 01:39:45;;;;;;;5.20;3.47;;;;;;;11.63;100.00;96443.22;1031073;28;20014;-76
2023/08/11 01:40:16;;;;;;;7.65;4.28;;;;;;;11.72;100.00;96452.22;1029301;28;20022;-75
2023/08/11 01:40:47;;;;;;;5.40;4.22;;;;;;;11.64;100.00;96452.69;1026412;28;20023;-76
2023/08/11 01:41:17;;;;;;;5.70;4.38;;;;;;;11.62;100.00;96449.53;1022839;29;20023;-75
2023/08/11 01:41:47;;;;;;;6.97;3.90;;;;;;;11.67;100.00;96454.81;1020371;28;20011;-75
2023/08/11 01:42:18;;;;;;;5.20;4.43;;;;;;;11.68;100.00;96454.56;1026940;28;20527;-73
2023/08/11 01:42:48;;;;;;;6.88;4.20;;;;;;;11.61;100.00;96440.84;1022949;28;20117;-75
2023/08/11 01:43:19;;;;;;;7.32;4.32;;;;;;;11.63;100.00;96448.47;1018947;29;20031;-74
2023/08/11 01:43:50;;;;;;;5.65;4.03;;;;;;;11.63;100.00;96454.50;1022914;29;20042;-74
2023/08/11 01:44:21;;;;;;;5.45;4.13;;;;;;;11.60;100.00;96443.72;1027044;28;20493;-74
2023/08/11 01:44:51;;;;;;;4.93;3.83;;;;;;;11.67;100.00;96460.06;1027032;28;20027;-75
2023/08/11 01:45:23;;;;;;;3.90;3.50;;;;;;;11.65;100.00;96459.53;1025252;28;20061;-74
2023/08/11 01:45:53;;;;;;;6.78;3.78;;;;;;;11.63;100.00;96464.25;1023013;29;20027;-75
2023/08/11 01:46:24;;;;;;;5.55;4.32;;;;;;;11.62;100.00;96465.28;1031032;28;20034;-74
2023/08/11 01:46:55;;;;;;;9.95;4.22;;;;;;;11.62;100.00;96462.66;1031011;28;20030;-76
2023/08/11 01:47:26;;;;;;;11.13;4.15;;;;;;;11.60;100.00;96459.47;1030994;28;20554;-75
2023/08/11 01:47:56;;;;;;;5.65;3.63;;;;;;;11.61;100.00;96466.34;1035226;28;20040;-75
2023/08/11 01:48:27;;;;;;;12.15;4.35;;;;;;;11.54;100.00;96451.56;1027026;28;20034;-74
2023/08/11 01:48:57;;;;;;;10.15;4.30;;;;;;;11.59;100.00;96463.94;1026895;28;20394;-75
2023/08/11 01:49:28;;;;;;;9.80;4.75;;;;;;;11.56;100.00;96465.25;1034933;28;20022;-75
2023/08/11 01:49:58;;;;;;;5.03;4.03;;;;;;;11.56;100.00;96467.88;1030858;28;20033;-73
2023/08/11 01:50:28;;;;;;;9.57;4.60;;;;;;;11.45;100.00;96450.44;1026339;28;20025;-74
2023/08/11 01:50:59;;;;;;;8.55;4.43;;;;;;;11.50;100.00;96455.75;1022744;29;20105;-76
2023/08/11 01:51:29;;;;;;;7.30;4.32;;;;;;;11.55;100.00;96462.88;1027069;28;20057;-74
2023/08/11 01:52:00;;;;;;;8.40;4.35;;;;;;;11.46;100.00;96457.25;1026731;28;20034;-74
2023/08/11 01:52:31;;;;;;;11.52;4.47;;;;;;;11.50;100.00;96462.81;1027024;28;20420;-74
2023/08/11 01:53:02;;;;;;;8.85;4.88;;;;;;;11.55;100.00;96473.38;1019019;29;20645;-73
2023/08/11 01:53:33;;;;;;;5.85;4.47;;;;;;;11.52;100.00;96464.16;1018856;29;20099;-75
2023/08/11 01:54:03;;;;;;;6.28;4.05;;;;;;;11.52;100.00;96466.78;1019028;29;20070;-74
2023/08/11 01:54:34;;;;;;;7.30;4.32;;;;;;;11.45;100.00;96460.94;1019047;29;20086;-74
2023/08/11 01:55:05;;;;;;;5.07;4.57;;;;;;;11.45;100.00;96462.78;1022946;29;20071;-73
2023/08/11 01:55:36;;;;;;;4.55;4.15;;;;;;;11.50;100.00;96471.53;1026822;28;20033;-73
2023/08/11 01:56:06;;;;;;;7.35;4.40;;;;;;;11.43;100.00;96459.59;1017874;29;20023;-73
2023/08/11 01:56:37;;;;;;;5.78;4.00;;;;;;;11.49;100.00;96472.53;1023116;29;20039;-75
2023/08/11 01:57:07;;;;;;;5.90;4.60;;;;;;;11.47;100.00;96466.75;1018992;29;20046;-74
2023/08/11 01:57:38;;;;;;;6.70;4.45;;;;;;;11.48;100.00;96470.16;1022932;28;20027;-74
2023/08/11 01:58:08;;;;;;;7.53;4.53;;;;;;;11.49;100.00;96466.50;1023003;29;20556;-74
2023/08/11 01:58:39;;;;;;;6.70;4.70;;;;;;;11.40;100.00;96455.66;1026776;28;20031;-76
2023/08/11 01:59:13;;;;;;;7.93;4.70;;;;;;;11.44;100.00;96462.00;1030996;28;20030;-74
2023/08/11 01:59:43;;;;;;;5.68;4.40;;;;;;;11.47;100.00;96465.97;1030865;28;20026;-75
2023/08/11 02:00:16;;;;;;;4.50;3.92;;;;;;;11.41;100.00;96454.59;1028007;28;20278;-74
2023/08/11 02:00:46;;;;;;;6.53;4.22;;;;;;;11.44;100.00;96462.00;1022197;28;20145;-76
2023/08/11 02:01:16;;;;;;;6.25;4.57;;;;;;;11.45;100.00;96465.41;1022922;29;20031;-74
2023/08/11 02:01:48;;;;;;;8.40;4.13;;;;;;;11.42;100.00;96464.06;1026872;28;20031;-77
2023/08/11 02:02:18;;;;;;;6.97;5.10;;;;;;;11.40;100.00;96458.28;1030557;28;20473;-75
2023/08/11 02:02:48;;;;;;;10.32;4.43;;;;;;;11.45;100.00;96468.81;1026905;28;20273;-75
2023/08/11 02:03:19;;;;;;;9.43;4.32;;;;;;;11.46;100.00;96469.63;1022789;29;20027;-75
2023/08/11 02:03:49;;;;;;;6.97;4.88;;;;;;;11.44;100.00;96472.50;1022981;28;20035;-76
2023/08/11 02:04:20;;;;;;;5.13;4.32;;;;;;;11.44;100.00;96464.63;1030841;28;20022;-75
2023/08/11 02:04:50;;;;;;;7.30;4.80;;;;;;;11.45;100.00;96463.56;1035097;28;20511;-74
2023/08/11 02:05:24;;;;;;;6.78;4.55;;;;;;;11.37;100.00;96453.53;1034888;28;20049;-74
2023/08/11 02:05:55;;;;;;;5.53;4.70;;;;;;;11.46;100.00;96470.41;1038988;28;20029;-76
2023/08/11 02:06:25;;;;;;;4.72;4.07;;;;;;;11.47;100.00;96465.97;1030932;28;20269;-74
2023/08/11 02:06:56;;;;;;;6.75;4.60;;;;;;;11.46;100.00;96465.16;1031063;28;20273;-74
2023/08/11 02:07:26;;;;;;;7.68;4.40;;;;;;;11.39;100.00;96453.25;1030949;28;20493;-74
2023/08/11 02:07:58;;;;;;;5.88;3.88;;;;;;;11.45;100.00;96468.81;1031050;28;20026;-74
2023/08/11 02:08:28;;;;;;;6.75;4.40;;;;;;;11.42;100.00;96464.06;1034937;28;20068;-74
2023/08/11 02:09:00;;;;;;;6.65;4.60;;;;;;;11.44;100.00;96464.63;1034509;28;20622;-73
2023/08/11 02:09:31;;;;;;;4.57;3.92;;;;;;;11.36;100.00;96448.50;1035082;28;20112;-74
2023/08/11 02:10:02;;;;;;;6.47;4.18;;;;;;;11.44;100.00;96462.00;1038925;28;20331;-75
2023/08/11 02:10:33;;;;;;;7.50;4.80;;;;;;;11.46;100.00;96464.38;1033853;28;20022;-74
2023/08/11 02:11:03;;;;;;;5.60;4.70;;;;;;;11.42;100.00;96458.81;1030703;28;20262;-74
2023/08/11 02:11:37;;;;;;;6.32;4.10;;;;;;;11.47;100.00;96460.72;1030988;28;20034;-75
2023/08/11 02:12:07;;;;;;;5.32;4.60;;;;;;;11.47;100.00;96464.13;1031943;28;20088;-74
2023/08/11 02:12:38;;;;;;;5.03;3.95;;;;;;;11.44;100.00;96455.94;1038890;28;20780;-76
2023/08/11 02:13:09;;;;;;;6.20;4.28;;;;;;;11.47;100.00;96463.34;1035647;28;20064;-76
2023/08/11 02:13:39;;;;;;;5.00;4.50;;;;;;;11.47;100.00;96460.72;1030906;28;20566;-75
2023/08/11 02:14:10;;;;;;;6.90;4.68;;;;;;;11.46;100.00;96465.16;1026871;28;20395;-74
2023/08/11 02:14:40;;;;;;;4.82;4.32;;;;;;;11.38;100.00;96457.72;1022725;28;20444;-74
2023/08/11 02:15:11;;;;;;;5.65;4.53;;;;;;;11.42;100.00;96464.06;1023091;28;20027;-74
2023/08/11 02:15:41;;;;;;;5.72;4.22;;;;;;;11.43;100.00;96462.22;1023004;28;20035;-74
2023/08/11 02:16:12;;;;;;;5.95;4.30;;;;;;;11.38;100.00;96460.38;1030775;28;20033;-76
2023/08/11 02:16:43;;;;;;;7.47;4.50;;;;;;;11.40;100.00;96460.09;1022861;29;20031;-75
2023/08/11 02:17:13;;;;;;;7.82;4.47;;;;;;;11.39;100.00;96459.31;1023114;28;20035;-76
2023/08/11 02:17:44;;;;;;;6.40;4.53;;;;;;;11.39;100.00;96458.53;1022914;29;20039;-75
2023/08/11 02:18:14;;;;;;;5.82;4.35;;;;;;;11.29;100.00;96443.47;1022900;28;20027;-75
2023/08/11 02:18:45;;;;;;;5.78;4.70;;;;;;;11.34;100.00;96454.03;1030803;28;20030;-75
2023/08/11 02:19:15;;;;;;;5.43;4.30;;;;;;;11.37;100.00;96458.78;1030933;28;20049;-75
2023/08/11 02:19:45;;;;;;;4.57;4.07;;;;;;;11.37;100.00;96457.97;1026739;28;20026;-75
2023/08/11 02:20:49;;;;;;;7.60;4.00;;;;;;;11.36;100.00;96454.56;1026674;28;20031;-75
2023/08/11 02:21:21;;;;;;;5.90;4.47;;;;;;;11.32;100.00;96453.47;1027088;28;20492;-75
2023/08/11 02:21:51;;;;;;;4.55;4.00;;;;;;;11.34;100.00;96456.66;1027458;28;20155;-76
2023/08/11 02:22:21;;;;;;;5.45;4.28;;;;;;;11.35;100.00;96457.44;1026751;28;20325;-76
2023/08/11 02:22:52;;;;;;;15.95;4.78;;;;;;;11.31;100.00;96452.69;1024075;28;20062;-76
2023/08/11 02:23:23;;;;;;;5.68;4.63;;;;;;;11.26;100.00;96443.94;1023008;28;20430;-75
2023/08/11 02:23:54;;;;;;;8.18;4.35;;;;;;;11.34;100.00;96451.41;1027320;28;20019;-74
2023/08/11 02:24:24;;;;;;;7.07;4.38;;;;;;;11.36;100.00;96454.56;1027055;28;20412;-74
2023/08/11 02:24:55;;;;;;;6.45;4.55;;;;;;;11.35;100.00;96454.81;1026653;28;20023;-73
2023/08/11 02:25:25;;;;;;;7.57;4.03;;;;;;;11.37;100.00;96460.59;1026939;28;20019;-73
2023/08/11 02:25:56;;;;;;;9.50;4.68;;;;;;;11.37;100.00;96464.03;1030976;28;20393;-74